sensor_id;sensor_type;location;lat;lon;timestamp;pressure;altitude;pressure_sealevel;temperature;humidity
39363;BME280;25088;43.238;23.110;2023-11-19T00:01:26;96478.31;;;7.38;49.54
39363;BME280;25088;43.238;23.110;2023-11-19T00:03:51;96477.22;;;7.39;49.66
39363;BME280;25088;43.238;23.110;2023-11-19T00:06:17;96481.13;;;7.19;49.62
39363;BME280;25088;43.238;23.110;2023-11-19T00:08:42;96489.03;;;7.33;50.00
39363;BME280;25088;43.238;23.110;2023-11-19T00:11:11;96480.06;;;7.20;49.95
39363;BME280;25088;43.238;23.110;2023-11-19T00:13:40;96484.44;;;7.45;49.70
39363;BME280;25088;43.238;23.110;2023-11-19T00:16:06;96484.66;;;7.55;49.84
39363;BME280;25088;43.238;23.110;2023-11-19T00:18:32;96492.59;;;7.33;49.32
39363;BME280;25088;43.238;23.110;2023-11-19T00:20:58;96498.72;;;7.40;49.10
39363;BME280;25088;43.238;23.110;2023-11-19T00:23:23;96502.50;;;7.28;49.50
39363;BME280;25088;43.238;23.110;2023-11-19T00:25:49;96513.34;;;7.16;49.66
39363;BME280;25088;43.238;23.110;2023-11-19T00:28:14;96470.75;;;7.16;49.26
39363;BME280;25088;43.238;23.110;2023-11-19T00:30:40;96495.06;;;7.58;49.05
39363;BME280;25088;43.238;23.110;2023-11-19T00:33:08;96496.47;;;7.49;49.14
39363;BME280;25088;43.238;23.110;2023-11-19T00:35:33;96492.94;;;7.48;49.22
39363;BME280;25088;43.238;23.110;2023-11-19T00:37:59;96470.75;;;7.28;48.82
39363;BME280;25088;43.238;23.110;2023-11-19T00:40:25;96487.28;;;7.38;49.25
39363;BME280;25088;43.238;23.110;2023-11-19T00:42:51;96483.84;;;7.55;49.12
39363;BME280;25088;43.238;23.110;2023-11-19T00:45:16;96499.06;;;7.56;48.64
39363;BME280;25088;43.238;23.110;2023-11-19T00:47:42;96500.03;;;7.38;48.91
39363;BME280;25088;43.238;23.110;2023-11-19T00:50:08;96479.69;;;7.40;48.76
39363;BME280;25088;43.238;23.110;2023-11-19T00:52:37;96474.03;;;7.30;48.71
39363;BME280;25088;43.238;23.110;2023-11-19T00:55:04;96494.81;;;7.48;48.72
39363;BME280;25088;43.238;23.110;2023-11-19T00:57:30;96470.28;;;7.43;48.57
39363;BME280;25088;43.238;23.110;2023-11-19T00:59:58;96499.78;;;7.63;48.08
39363;BME280;25088;43.238;23.110;2023-11-19T01:02:24;96495.16;;;7.63;48.13
39363;BME280;25088;43.238;23.110;2023-11-19T01:04:49;96496.00;;;7.64;47.82
39363;BME280;25088;43.238;23.110;2023-11-19T01:07:16;96529.69;;;7.51;48.54
39363;BME280;25088;43.238;23.110;2023-11-19T01:09:42;96525.66;;;7.42;48.53
39363;BME280;25088;43.238;23.110;2023-11-19T01:12:07;96514.19;;;7.63;48.40
39363;BME280;25088;43.238;23.110;2023-11-19T01:14:34;96524.72;;;7.71;48.54
39363;BME280;25088;43.238;23.110;2023-11-19T01:17:00;96525.06;;;7.51;48.03
39363;BME280;25088;43.238;23.110;2023-11-19T01:19:26;96522.22;;;7.58;48.35
39363;BME280;25088;43.238;23.110;2023-11-19T01:21:53;96505.34;;;7.56;48.28
39363;BME280;25088;43.238;23.110;2023-11-19T01:24:19;96496.47;;;7.49;48.19
39363;BME280;25088;43.238;23.110;2023-11-19T01:26:45;96510.75;;;7.68;48.09
39363;BME280;25088;43.238;23.110;2023-11-19T01:29:14;96503.31;;;7.40;48.28
39363;BME280;25088;43.238;23.110;2023-11-19T01:31:45;96520.34;;;7.59;47.87
39363;BME280;25088;43.238;23.110;2023-11-19T01:34:10;96523.88;;;7.59;48.26
39363;BME280;25088;43.238;23.110;2023-11-19T01:36:36;96496.81;;;7.41;48.23
39363;BME280;25088;43.238;23.110;2023-11-19T01:39:02;96490.59;;;7.52;47.91
39363;BME280;25088;43.238;23.110;2023-11-19T01:41:29;96510.28;;;7.59;47.97
39363;BME280;25088;43.238;23.110;2023-11-19T01:43:55;96526.47;;;7.31;47.85
39363;BME280;25088;43.238;23.110;2023-11-19T01:46:20;96534.50;;;7.49;47.77
39363;BME280;25088;43.238;23.110;2023-11-19T01:48:46;96515.84;;;7.64;47.64
39363;BME280;25088;43.238;23.110;2023-11-19T01:51:13;96512.53;;;7.62;48.15
39363;BME280;25088;43.238;23.110;2023-11-19T01:53:42;96508.03;;;7.68;47.93
39363;BME280;25088;43.238;23.110;2023-11-19T01:56:09;96495.53;;;7.67;47.93
39363;BME280;25088;43.238;23.110;2023-11-19T01:58:36;96505.56;;;7.78;47.60
39363;BME280;25088;43.238;23.110;2023-11-19T02:01:01;96476.63;;;7.60;48.08
39363;BME280;25088;43.238;23.110;2023-11-19T02:03:31;96507.69;;;7.64;47.56
39363;BME280;25088;43.238;23.110;2023-11-19T02:05:58;96493.50;;;7.04;48.52
39363;BME280;25088;43.238;23.110;2023-11-19T02:08:24;96489.50;;;7.18;48.05
39363;BME280;25088;43.238;23.110;2023-11-19T02:10:49;96490.34;;;7.42;48.04
39363;BME280;25088;43.238;23.110;2023-11-19T02:13:15;96485.59;;;7.25;48.06
39363;BME280;25088;43.238;23.110;2023-11-19T02:15:41;96477.00;;;7.17;47.36
39363;BME280;25088;43.238;23.110;2023-11-19T02:18:28;96471.22;;;7.37;47.92
39363;BME280;25088;43.238;23.110;2023-11-19T02:20:58;96465.91;;;7.42;48.17
39363;BME280;25088;43.238;23.110;2023-11-19T02:23:26;96471.34;;;7.42;48.39
39363;BME280;25088;43.238;23.110;2023-11-19T02:26:02;96473.91;;;7.48;48.68
39363;BME280;25088;43.238;23.110;2023-11-19T02:28:29;96471.56;;;7.40;48.53
39363;BME280;25088;43.238;23.110;2023-11-19T02:30:54;96484.09;;;7.41;48.02
39363;BME280;25088;43.238;23.110;2023-11-19T02:33:20;96447.25;;;7.22;47.88
39363;BME280;25088;43.238;23.110;2023-11-19T02:35:45;96475.09;;;7.41;48.36
39363;BME280;25088;43.238;23.110;2023-11-19T02:38:11;96479.00;;;7.33;47.33
39363;BME280;25088;43.238;23.110;2023-11-19T02:40:36;96479.94;;;7.39;46.85
39363;BME280;25088;43.238;23.110;2023-11-19T02:43:02;96486.44;;;7.49;48.25
39363;BME280;25088;43.238;23.110;2023-11-19T02:45:30;96489.16;;;7.49;48.05
39363;BME280;25088;43.238;23.110;2023-11-19T02:47:56;96493.88;;;7.31;48.63
39363;BME280;25088;43.238;23.110;2023-11-19T02:50:22;96497.16;;;7.09;48.88
39363;BME280;25088;43.238;23.110;2023-11-19T02:52:52;96493.50;;;7.15;49.22
39363;BME280;25088;43.238;23.110;2023-11-19T02:55:18;96504.69;;;6.84;49.52
39363;BME280;25088;43.238;23.110;2023-11-19T02:57:45;96515.56;;;6.95;49.89
39363;BME280;25088;43.238;23.110;2023-11-19T03:00:18;96518.06;;;7.09;49.45
39363;BME280;25088;43.238;23.110;2023-11-19T03:02:44;96497.88;;;6.93;50.13
39363;BME280;25088;43.238;23.110;2023-11-19T03:05:25;96495.59;;;6.90;51.20
39363;BME280;25088;43.238;23.110;2023-11-19T03:07:51;96494.84;;;6.71;50.23
39363;BME280;25088;43.238;23.110;2023-11-19T03:10:17;96507.69;;;6.64;51.24
39363;BME280;25088;43.238;23.110;2023-11-19T03:12:43;96506.06;;;6.74;51.58
39363;BME280;25088;43.238;23.110;2023-11-19T03:15:10;96496.97;;;6.57;51.73
39363;BME280;25088;43.238;23.110;2023-11-19T03:17:39;96502.13;;;6.59;51.53
39363;BME280;25088;43.238;23.110;2023-11-19T03:20:07;96505.22;;;6.62;51.50
39363;BME280;25088;43.238;23.110;2023-11-19T03:22:36;96473.47;;;6.21;53.56
39363;BME280;25088;43.238;23.110;2023-11-19T03:25:01;96494.31;;;6.20;53.01
39363;BME280;25088;43.238;23.110;2023-11-19T03:27:27;96506.97;;;6.27;51.93
39363;BME280;25088;43.238;23.110;2023-11-19T03:29:52;96513.53;;;6.19;52.79
39363;BME280;25088;43.238;23.110;2023-11-19T03:32:18;96521.09;;;5.99;54.37
39363;BME280;25088;43.238;23.110;2023-11-19T03:34:43;96529.72;;;5.89;53.99
39363;BME280;25088;43.238;23.110;2023-11-19T03:37:09;96523.16;;;5.60;54.55
39363;BME280;25088;43.238;23.110;2023-11-19T03:39:34;96531.16;;;5.30;56.18
39363;BME280;25088;43.238;23.110;2023-11-19T03:42:00;96529.72;;;5.27;56.74
39363;BME280;25088;43.238;23.110;2023-11-19T03:44:27;96528.72;;;5.22;56.91
39363;BME280;25088;43.238;23.110;2023-11-19T03:46:52;96532.66;;;5.26;57.05
39363;BME280;25088;43.238;23.110;2023-11-19T03:49:18;96534.19;;;5.15;56.49
39363;BME280;25088;43.238;23.110;2023-11-19T03:51:43;96513.06;;;5.05;56.59
39363;BME280;25088;43.238;23.110;2023-11-19T03:54:08;96531.41;;;5.03;57.08
39363;BME280;25088;43.238;23.110;2023-11-19T03:56:34;96532.41;;;4.77;58.10
39363;BME280;25088;43.238;23.110;2023-11-19T03:59:00;96535.84;;;4.91;57.91
39363;BME280;25088;43.238;23.110;2023-11-19T04:01:25;96535.16;;;4.71;59.02
39363;BME280;25088;43.238;23.110;2023-11-19T04:03:51;96532.13;;;4.60;59.82
39363;BME280;25088;43.238;23.110;2023-11-19T04:06:16;96527.34;;;4.56;60.32
39363;BME280;25088;43.238;23.110;2023-11-19T04:08:42;96492.78;;;4.33;60.60
39363;BME280;25088;43.238;23.110;2023-11-19T04:11:07;96488.47;;;4.25;60.38
39363;BME280;25088;43.238;23.110;2023-11-19T04:13:34;96464.84;;;4.14;60.27
39363;BME280;25088;43.238;23.110;2023-11-19T04:15:59;96525.59;;;4.43;60.71
39363;BME280;25088;43.238;23.110;2023-11-19T04:18:25;96517.91;;;4.40;60.40
39363;BME280;25088;43.238;23.110;2023-11-19T04:20:51;96526.22;;;4.38;60.76
39363;BME280;25088;43.238;23.110;2023-11-19T04:23:16;96494.19;;;4.04;61.12
39363;BME280;25088;43.238;23.110;2023-11-19T04:25:42;96494.69;;;3.81;61.72
39363;BME280;25088;43.238;23.110;2023-11-19T04:28:07;96533.38;;;4.20;61.33
39363;BME280;25088;43.238;23.110;2023-11-19T04:30:33;96478.00;;;3.97;61.02
39363;BME280;25088;43.238;23.110;2023-11-19T04:32:59;96528.44;;;4.10;61.81
39363;BME280;25088;43.238;23.110;2023-11-19T04:35:24;96517.22;;;4.13;61.85
39363;BME280;25088;43.238;23.110;2023-11-19T04:37:51;96524.19;;;4.27;61.41
39363;BME280;25088;43.238;23.110;2023-11-19T04:40:16;96520.28;;;4.23;61.00
39363;BME280;25088;43.238;23.110;2023-11-19T04:42:43;96499.28;;;4.25;60.42
39363;BME280;25088;43.238;23.110;2023-11-19T04:45:09;96506.97;;;4.22;61.26
39363;BME280;25088;43.238;23.110;2023-11-19T04:47:36;96513.88;;;4.49;60.30
39363;BME280;25088;43.238;23.110;2023-11-19T04:50:02;96530.28;;;4.23;60.82
39363;BME280;25088;43.238;23.110;2023-11-19T04:52:28;96549.38;;;4.28;61.07
39363;BME280;25088;43.238;23.110;2023-11-19T04:54:53;96553.91;;;4.34;60.95
39363;BME280;25088;43.238;23.110;2023-11-19T04:57:19;96546.00;;;4.32;61.17
39363;BME280;25088;43.238;23.110;2023-11-19T04:59:44;96535.44;;;4.24;60.67
39363;BME280;25088;43.238;23.110;2023-11-19T05:02:10;96527.34;;;4.18;61.06
39363;BME280;25088;43.238;23.110;2023-11-19T05:04:36;96534.00;;;4.22;60.52
39363;BME280;25088;43.238;23.110;2023-11-19T05:07:03;96535.69;;;4.16;61.66
39363;BME280;25088;43.238;23.110;2023-11-19T05:09:28;96533.66;;;4.05;62.11
39363;BME280;25088;43.238;23.110;2023-11-19T05:11:54;96501.94;;;3.87;61.70
39363;BME280;25088;43.238;23.110;2023-11-19T05:14:19;96520.63;;;3.95;62.08
39363;BME280;25088;43.238;23.110;2023-11-19T05:16:45;96513.59;;;3.81;63.03
39363;BME280;25088;43.238;23.110;2023-11-19T05:19:11;96529.44;;;3.64;64.31
39363;BME280;25088;43.238;23.110;2023-11-19T05:21:37;96527.34;;;3.66;64.94
39363;BME280;25088;43.238;23.110;2023-11-19T05:24:02;96514.09;;;3.51;65.02
39363;BME280;25088;43.238;23.110;2023-11-19T05:26:31;96517.41;;;3.60;64.94
39363;BME280;25088;43.238;23.110;2023-11-19T05:28:56;96516.78;;;3.58;64.81
39363;BME280;25088;43.238;23.110;2023-11-19T05:31:22;96534.25;;;3.55;65.24
39363;BME280;25088;43.238;23.110;2023-11-19T05:33:47;96522.22;;;3.45;65.85
39363;BME280;25088;43.238;23.110;2023-11-19T05:36:13;96519.72;;;3.50;65.58
39363;BME280;25088;43.238;23.110;2023-11-19T05:38:38;96522.97;;;3.72;64.28
39363;BME280;25088;43.238;23.110;2023-11-19T05:41:04;96529.66;;;3.69;66.48
39363;BME280;25088;43.238;23.110;2023-11-19T05:43:31;96501.63;;;3.57;65.24
39363;BME280;25088;43.238;23.110;2023-11-19T05:45:56;96545.84;;;3.69;65.43
39363;BME280;25088;43.238;23.110;2023-11-19T05:48:22;96547.91;;;3.67;65.64
39363;BME280;25088;43.238;23.110;2023-11-19T05:50:48;96541.03;;;3.78;64.83
39363;BME280;25088;43.238;23.110;2023-11-19T05:53:15;96551.78;;;3.91;64.85
39363;BME280;25088;43.238;23.110;2023-11-19T05:55:41;96522.00;;;3.59;64.16
39363;BME280;25088;43.238;23.110;2023-11-19T05:58:14;96541.97;;;4.10;64.24
39363;BME280;25088;43.238;23.110;2023-11-19T06:00:40;96536.69;;;4.22;62.73
39363;BME280;25088;43.238;23.110;2023-11-19T06:03:08;96519.41;;;4.68;61.54
39363;BME280;25088;43.238;23.110;2023-11-19T06:05:33;96488.25;;;5.08;59.92
39363;BME280;25088;43.238;23.110;2023-11-19T06:07:59;96515.81;;;6.04;57.55
39363;BME280;25088;43.238;23.110;2023-11-19T06:10:24;96507.81;;;6.57;55.33
39363;BME280;25088;43.238;23.110;2023-11-19T06:13:00;96519.63;;;7.16;54.68
39363;BME280;25088;43.238;23.110;2023-11-19T06:15:28;96537.84;;;7.51;52.57
39363;BME280;25088;43.238;23.110;2023-11-19T06:17:54;96516.28;;;7.85;51.86
39363;BME280;25088;43.238;23.110;2023-11-19T06:20:20;96515.47;;;8.24;50.51
39363;BME280;25088;43.238;23.110;2023-11-19T06:22:46;96516.88;;;8.39;50.28
39363;BME280;25088;43.238;23.110;2023-11-19T06:25:12;96519.09;;;8.53;50.24
39363;BME280;25088;43.238;23.110;2023-11-19T06:27:40;96516.69;;;8.86;49.36
39363;BME280;25088;43.238;23.110;2023-11-19T06:30:06;96529.88;;;8.77;49.09
39363;BME280;25088;43.238;23.110;2023-11-19T06:32:32;96533.88;;;9.03;48.59
39363;BME280;25088;43.238;23.110;2023-11-19T06:34:58;96523.72;;;9.49;47.75
39363;BME280;25088;43.238;23.110;2023-11-19T06:37:23;96517.19;;;10.05;45.86
39363;BME280;25088;43.238;23.110;2023-11-19T06:39:49;96529.78;;;10.28;45.81
39363;BME280;25088;43.238;23.110;2023-11-19T06:42:14;96533.22;;;10.41;45.63
39363;BME280;25088;43.238;23.110;2023-11-19T06:44:40;96522.38;;;10.46;45.46
39363;BME280;25088;43.238;23.110;2023-11-19T06:47:05;96529.16;;;10.65;44.64
39363;BME280;25088;43.238;23.110;2023-11-19T06:49:31;96524.94;;;10.79;44.97
39363;BME280;25088;43.238;23.110;2023-11-19T06:51:57;96526.47;;;10.70;44.25
39363;BME280;25088;43.238;23.110;2023-11-19T06:54:22;96538.16;;;10.93;43.86
39363;BME280;25088;43.238;23.110;2023-11-19T06:56:48;96533.03;;;11.60;42.60
39363;BME280;25088;43.238;23.110;2023-11-19T06:59:13;96492.63;;;12.10;42.59
39363;BME280;25088;43.238;23.110;2023-11-19T07:01:39;96521.56;;;12.53;41.43
39363;BME280;25088;43.238;23.110;2023-11-19T07:04:06;96517.44;;;12.56;41.14
39363;BME280;25088;43.238;23.110;2023-11-19T07:06:35;96521.78;;;12.47;41.61
39363;BME280;25088;43.238;23.110;2023-11-19T07:09:02;96476.94;;;12.68;40.08
39363;BME280;25088;43.238;23.110;2023-11-19T07:11:38;96518.47;;;13.38;39.23
39363;BME280;25088;43.238;23.110;2023-11-19T07:14:04;96505.84;;;13.73;39.98
39363;BME280;25088;43.238;23.110;2023-11-19T07:16:35;96509.03;;;14.15;38.48
39363;BME280;25088;43.238;23.110;2023-11-19T07:19:03;96524.81;;;14.59;36.80
39363;BME280;25088;43.238;23.110;2023-11-19T07:21:29;96534.25;;;15.03;35.50
39363;BME280;25088;43.238;23.110;2023-11-19T07:23:55;96515.34;;;15.30;35.49
39363;BME280;25088;43.238;23.110;2023-11-19T07:26:21;96497.28;;;15.19;35.98
39363;BME280;25088;43.238;23.110;2023-11-19T07:28:47;96526.31;;;15.74;34.92
39363;BME280;25088;43.238;23.110;2023-11-19T07:31:12;96517.81;;;16.00;33.97
39363;BME280;25088;43.238;23.110;2023-11-19T07:33:39;96498.56;;;16.24;33.57
39363;BME280;25088;43.238;23.110;2023-11-19T07:36:05;96508.63;;;16.34;33.23
39363;BME280;25088;43.238;23.110;2023-11-19T07:38:31;96520.66;;;16.67;33.25
39363;BME280;25088;43.238;23.110;2023-11-19T07:40:56;96523.19;;;16.87;32.43
39363;BME280;25088;43.238;23.110;2023-11-19T07:43:22;96516.91;;;17.19;32.00
39363;BME280;25088;43.238;23.110;2023-11-19T07:45:47;96514.66;;;17.40;31.44
39363;BME280;25088;43.238;23.110;2023-11-19T07:48:12;96517.09;;;17.79;29.98
39363;BME280;25088;43.238;23.110;2023-11-19T07:50:39;96511.38;;;17.57;31.41
39363;BME280;25088;43.238;23.110;2023-11-19T07:53:08;96520.31;;;17.87;31.17
39363;BME280;25088;43.238;23.110;2023-11-19T07:55:34;96499.34;;;17.86;30.29
39363;BME280;25088;43.238;23.110;2023-11-19T07:58:00;96518.19;;;17.97;30.37
39363;BME280;25088;43.238;23.110;2023-11-19T08:00:25;96528.44;;;18.11;29.58
39363;BME280;25088;43.238;23.110;2023-11-19T08:02:51;96523.97;;;18.42;29.53
39363;BME280;25088;43.238;23.110;2023-11-19T08:05:16;96521.94;;;18.20;29.46
39363;BME280;25088;43.238;23.110;2023-11-19T08:07:41;96511.19;;;18.46;29.77
39363;BME280;25088;43.238;23.110;2023-11-19T08:10:07;96515.31;;;18.76;30.17
39363;BME280;25088;43.238;23.110;2023-11-19T08:12:36;96517.25;;;18.90;28.82
39363;BME280;25088;43.238;23.110;2023-11-19T08:15:03;96515.38;;;18.99;29.17
39363;BME280;25088;43.238;23.110;2023-11-19T08:17:30;96506.13;;;19.17;29.16
39363;BME280;25088;43.238;23.110;2023-11-19T08:19:55;96525.50;;;19.03;29.08
39363;BME280;25088;43.238;23.110;2023-11-19T08:22:20;96513.97;;;18.88;28.24
39363;BME280;25088;43.238;23.110;2023-11-19T08:24:47;96534.19;;;19.24;28.57
39363;BME280;25088;43.238;23.110;2023-11-19T08:27:13;96524.09;;;19.42;28.17
39363;BME280;25088;43.238;23.110;2023-11-19T08:29:38;96534.94;;;19.52;28.11
39363;BME280;25088;43.238;23.110;2023-11-19T08:32:04;96526.41;;;19.62;27.76
39363;BME280;25088;43.238;23.110;2023-11-19T08:34:31;96523.13;;;19.83;27.80
39363;BME280;25088;43.238;23.110;2023-11-19T08:36:57;96506.75;;;19.95;27.53
39363;BME280;25088;43.238;23.110;2023-11-19T08:39:22;96526.50;;;20.25;27.16
39363;BME280;25088;43.238;23.110;2023-11-19T08:41:48;96539.91;;;20.31;27.05
39363;BME280;25088;43.238;23.110;2023-11-19T08:44:14;96513.47;;;20.25;27.21
39363;BME280;25088;43.238;23.110;2023-11-19T08:46:46;96520.16;;;20.33;27.15
39363;BME280;25088;43.238;23.110;2023-11-19T08:49:12;96498.44;;;20.26;26.91
39363;BME280;25088;43.238;23.110;2023-11-19T08:51:37;96510.31;;;20.18;27.94
39363;BME280;25088;43.238;23.110;2023-11-19T08:54:03;96475.41;;;20.48;26.64
39363;BME280;25088;43.238;23.110;2023-11-19T08:56:28;96512.84;;;20.59;28.05
39363;BME280;25088;43.238;23.110;2023-11-19T08:58:58;96479.06;;;20.66;26.61
39363;BME280;25088;43.238;23.110;2023-11-19T09:01:23;96502.88;;;20.67;27.36
39363;BME280;25088;43.238;23.110;2023-11-19T09:03:50;96509.47;;;20.80;26.55
39363;BME280;25088;43.238;23.110;2023-11-19T09:06:15;96513.88;;;20.81;26.68
39363;BME280;25088;43.238;23.110;2023-11-19T09:08:42;96524.53;;;20.96;26.49
39363;BME280;25088;43.238;23.110;2023-11-19T09:11:07;96530.25;;;21.08;25.83
39363;BME280;25088;43.238;23.110;2023-11-19T09:13:34;96521.81;;;21.13;25.73
39363;BME280;25088;43.238;23.110;2023-11-19T09:16:00;96525.38;;;21.05;25.72
39363;BME280;25088;43.238;23.110;2023-11-19T09:18:29;96524.09;;;21.20;26.02
39363;BME280;25088;43.238;23.110;2023-11-19T09:20:54;96517.72;;;21.20;25.74
39363;BME280;25088;43.238;23.110;2023-11-19T09:23:20;96511.41;;;21.54;25.43
39363;BME280;25088;43.238;23.110;2023-11-19T09:25:45;96494.72;;;21.80;25.28
39363;BME280;25088;43.238;23.110;2023-11-19T09:28:11;96490.31;;;21.79;24.86
39363;BME280;25088;43.238;23.110;2023-11-19T09:30:36;96467.44;;;21.56;25.12
39363;BME280;25088;43.238;23.110;2023-11-19T09:33:02;96494.88;;;21.57;25.26
39363;BME280;25088;43.238;23.110;2023-11-19T09:35:28;96472.00;;;21.60;25.41
39363;BME280;25088;43.238;23.110;2023-11-19T09:37:53;96466.59;;;21.90;25.18
39363;BME280;25088;43.238;23.110;2023-11-19T09:40:18;96472.09;;;22.07;24.47
39363;BME280;25088;43.238;23.110;2023-11-19T09:42:45;96481.22;;;22.34;24.67
39363;BME280;25088;43.238;23.110;2023-11-19T09:45:15;96470.34;;;22.50;24.01
39363;BME280;25088;43.238;23.110;2023-11-19T09:47:45;96471.41;;;22.28;24.07
39363;BME280;25088;43.238;23.110;2023-11-19T09:50:18;96453.16;;;21.92;24.65
39363;BME280;25088;43.238;23.110;2023-11-19T09:52:45;96463.63;;;21.86;24.88
39363;BME280;25088;43.238;23.110;2023-11-19T09:55:10;96450.81;;;22.20;24.24
39363;BME280;25088;43.238;23.110;2023-11-19T09:57:38;96448.94;;;22.41;23.85
39363;BME280;25088;43.238;23.110;2023-11-19T10:00:04;96443.59;;;22.28;23.75
39363;BME280;25088;43.238;23.110;2023-11-19T10:02:34;96453.13;;;22.56;23.62
39363;BME280;25088;43.238;23.110;2023-11-19T10:05:04;96443.31;;;22.59;24.23
39363;BME280;25088;43.238;23.110;2023-11-19T10:07:32;96468.19;;;22.55;24.59
39363;BME280;25088;43.238;23.110;2023-11-19T10:10:02;96436.78;;;22.55;24.13
39363;BME280;25088;43.238;23.110;2023-11-19T10:12:29;96451.78;;;22.62;23.95
39363;BME280;25088;43.238;23.110;2023-11-19T10:14:58;96444.97;;;22.81;23.43
39363;BME280;25088;43.238;23.110;2023-11-19T10:17:34;96448.25;;;23.12;23.10
39363;BME280;25088;43.238;23.110;2023-11-19T10:20:00;96418.88;;;22.94;23.03
39363;BME280;25088;43.238;23.110;2023-11-19T10:22:27;96438.31;;;22.73;24.04
39363;BME280;25088;43.238;23.110;2023-11-19T10:24:53;96449.84;;;22.63;23.81
39363;BME280;25088;43.238;23.110;2023-11-19T10:27:18;96444.31;;;22.84;23.44
39363;BME280;25088;43.238;23.110;2023-11-19T10:29:47;96452.84;;;22.79;23.30
39363;BME280;25088;43.238;23.110;2023-11-19T10:32:13;96429.31;;;22.67;23.50
39363;BME280;25088;43.238;23.110;2023-11-19T10:34:42;96443.78;;;22.90;23.19
39363;BME280;25088;43.238;23.110;2023-11-19T10:37:08;96411.94;;;23.21;22.63
39363;BME280;25088;43.238;23.110;2023-11-19T10:39:53;96433.28;;;23.38;22.85
39363;BME280;25088;43.238;23.110;2023-11-19T10:42:19;96429.22;;;22.85;22.50
39363;BME280;25088;43.238;23.110;2023-11-19T10:44:45;96424.31;;;22.90;23.00
39363;BME280;25088;43.238;23.110;2023-11-19T10:47:11;96420.41;;;23.12;23.12
39363;BME280;25088;43.238;23.110;2023-11-19T10:49:39;96428.13;;;23.48;22.98
39363;BME280;25088;43.238;23.110;2023-11-19T10:52:05;96424.03;;;23.46;23.07
39363;BME280;25088;43.238;23.110;2023-11-19T10:54:34;96423.97;;;23.34;22.71
39363;BME280;25088;43.238;23.110;2023-11-19T10:57:01;96429.59;;;23.67;22.70
39363;BME280;25088;43.238;23.110;2023-11-19T10:59:33;96422.56;;;23.82;22.52
39363;BME280;25088;43.238;23.110;2023-11-19T11:02:06;96411.50;;;24.18;22.43
39363;BME280;25088;43.238;23.110;2023-11-19T11:04:39;96411.88;;;24.41;22.39
39363;BME280;25088;43.238;23.110;2023-11-19T11:07:05;96407.09;;;24.30;22.71
39363;BME280;25088;43.238;23.110;2023-11-19T11:09:32;96421.19;;;24.33;22.26
39363;BME280;25088;43.238;23.110;2023-11-19T11:11:59;96409.47;;;24.40;21.54
39363;BME280;25088;43.238;23.110;2023-11-19T11:14:25;96362.50;;;24.42;21.86
39363;BME280;25088;43.238;23.110;2023-11-19T11:16:53;96414.47;;;24.59;21.51
39363;BME280;25088;43.238;23.110;2023-11-19T11:19:19;96415.09;;;24.19;22.16
39363;BME280;25088;43.238;23.110;2023-11-19T11:21:52;96416.41;;;24.34;22.37
39363;BME280;25088;43.238;23.110;2023-11-19T11:24:37;96401.25;;;23.98;22.07
39363;BME280;25088;43.238;23.110;2023-11-19T11:30:20;96398.63;;;23.27;22.45
39363;BME280;25088;43.238;23.110;2023-11-19T11:36:09;96394.75;;;24.06;21.71
39363;BME280;25088;43.238;23.110;2023-11-19T11:38:37;96393.16;;;24.17;21.75
39363;BME280;25088;43.238;23.110;2023-11-19T11:43:53;96390.84;;;24.68;21.60
39363;BME280;25088;43.238;23.110;2023-11-19T11:49:03;96378.19;;;24.59;21.94
39363;BME280;25088;43.238;23.110;2023-11-19T11:54:30;96355.03;;;24.58;21.46
39363;BME280;25088;43.238;23.110;2023-11-19T11:57:10;96362.47;;;24.66;21.25
39363;BME280;25088;43.238;23.110;2023-11-19T12:02:07;96350.72;;;24.61;22.43
39363;BME280;25088;43.238;23.110;2023-11-19T12:04:34;96340.38;;;24.12;22.17
39363;BME280;25088;43.238;23.110;2023-11-19T12:07:08;96337.81;;;24.19;22.30
39363;BME280;25088;43.238;23.110;2023-11-19T12:09:40;96345.34;;;24.07;21.81
39363;BME280;25088;43.238;23.110;2023-11-19T12:20:06;96327.31;;;23.67;22.18
39363;BME280;25088;43.238;23.110;2023-11-19T12:22:36;96309.56;;;23.72;21.95
39363;BME280;25088;43.238;23.110;2023-11-19T12:25:03;96329.78;;;23.93;22.40
39363;BME280;25088;43.238;23.110;2023-11-19T12:27:29;96319.22;;;24.11;21.73
39363;BME280;25088;43.238;23.110;2023-11-19T12:29:55;96325.28;;;24.38;22.33
39363;BME280;25088;43.238;23.110;2023-11-19T12:32:22;96343.66;;;24.39;21.93
39363;BME280;25088;43.238;23.110;2023-11-19T12:34:47;96343.75;;;24.30;21.91
39363;BME280;25088;43.238;23.110;2023-11-19T12:37:14;96353.41;;;24.45;21.79
39363;BME280;25088;43.238;23.110;2023-11-19T12:39:40;96331.22;;;24.36;22.28
39363;BME280;25088;43.238;23.110;2023-11-19T12:42:06;96353.34;;;23.84;21.75
39363;BME280;25088;43.238;23.110;2023-11-19T12:44:31;96353.50;;;23.99;22.46
39363;BME280;25088;43.238;23.110;2023-11-19T12:47:01;96338.63;;;24.08;21.38
39363;BME280;25088;43.238;23.110;2023-11-19T12:49:27;96331.06;;;24.20;22.01
39363;BME280;25088;43.238;23.110;2023-11-19T12:51:52;96336.78;;;24.48;21.10
39363;BME280;25088;43.238;23.110;2023-11-19T12:54:18;96340.03;;;24.14;21.48
39363;BME280;25088;43.238;23.110;2023-11-19T12:56:53;96332.81;;;23.88;21.69
39363;BME280;25088;43.238;23.110;2023-11-19T12:59:19;96337.84;;;23.29;22.38
39363;BME280;25088;43.238;23.110;2023-11-19T13:02:13;96328.28;;;23.17;22.45
39363;BME280;25088;43.238;23.110;2023-11-19T13:04:39;96339.81;;;23.28;22.06
39363;BME280;25088;43.238;23.110;2023-11-19T13:07:04;96335.56;;;23.43;22.31
39363;BME280;25088;43.238;23.110;2023-11-19T13:09:30;96336.75;;;23.54;22.25
39363;BME280;25088;43.238;23.110;2023-11-19T13:11:56;96346.84;;;22.92;22.53
39363;BME280;25088;43.238;23.110;2023-11-19T13:14:22;96318.97;;;22.71;22.96
39363;BME280;25088;43.238;23.110;2023-11-19T13:16:48;96349.59;;;22.42;23.24
39363;BME280;25088;43.238;23.110;2023-11-19T13:19:15;96348.03;;;21.38;23.87